sensor_id;sensor_type;location;lat;lon;timestamp;P1;durP1;ratioP1;P2;durP2;ratioP2
57824;SDS011;43912;44.188;21.094;2023-02-12T00:01:15;203.45;;;124.72;;
57824;SDS011;43912;44.188;21.094;2023-02-12T00:03:41;137.02;;;87.45;;
57824;SDS011;43912;44.188;21.094;2023-02-12T00:06:08;169.65;;;107.43;;
57824;SDS011;43912;44.188;21.094;2023-02-12T00:08:34;150.60;;;94.80;;
57824;SDS011;43912;44.188;21.094;2023-02-12T00:11:11;188.27;;;114.28;;
57824;SDS011;43912;44.188;21.094;2023-02-12T00:13:37;156.82;;;102.50;;
57824;SDS011;43912;44.188;21.094;2023-02-12T00:16:07;253.50;;;137.13;;
57824;SDS011;43912;44.188;21.094;2023-02-12T00:18:34;166.10;;;109.30;;
57824;SDS011;43912;44.188;21.094;2023-02-12T00:21:00;180.95;;;114.30;;
57824;SDS011;43912;44.188;21.094;2023-02-12T00:23:26;195.38;;;116.50;;
57824;SDS011;43912;44.188;21.094;2023-02-12T00:25:53;189.00;;;109.47;;
57824;SDS011;43912;44.188;21.094;2023-02-12T00:28:19;209.38;;;112.28;;
57824;SDS011;43912;44.188;21.094;2023-02-12T00:30:54;226.25;;;115.13;;
57824;SDS011;43912;44.188;21.094;2023-02-12T00:33:20;126.85;;;78.63;;
57824;SDS011;43912;44.188;21.094;2023-02-12T00:35:53;115.88;;;81.68;;
57824;SDS011;43912;44.188;21.094;2023-02-12T00:38:19;162.82;;;97.90;;
57824;SDS011;43912;44.188;21.094;2023-02-12T00:40:45;123.32;;;78.65;;
57824;SDS011;43912;44.188;21.094;2023-02-12T00:43:12;124.55;;;85.50;;
57824;SDS011;43912;44.188;21.094;2023-02-12T00:45:50;151.75;;;120.82;;
57824;SDS011;43912;44.188;21.094;2023-02-12T00:48:16;100.05;;;66.45;;
57824;SDS011;43912;44.188;21.094;2023-02-12T00:50:43;96.53;;;67.82;;
57824;SDS011;43912;44.188;21.094;2023-02-12T00:53:10;100.78;;;64.20;;
57824;SDS011;43912;44.188;21.094;2023-02-12T00:55:36;99.22;;;67.75;;
57824;SDS011;43912;44.188;21.094;2023-02-12T00:58:02;136.52;;;84.55;;
57824;SDS011;43912;44.188;21.094;2023-02-12T01:00:29;157.38;;;99.32;;
57824;SDS011;43912;44.188;21.094;2023-02-12T01:02:55;190.05;;;110.95;;
57824;SDS011;43912;44.188;21.094;2023-02-12T01:05:21;128.93;;;86.00;;
57824;SDS011;43912;44.188;21.094;2023-02-12T01:07:48;187.60;;;115.43;;
57824;SDS011;43912;44.188;21.094;2023-02-12T01:10:14;166.77;;;110.13;;
57824;SDS011;43912;44.188;21.094;2023-02-12T01:12:41;109.80;;;71.45;;
57824;SDS011;43912;44.188;21.094;2023-02-12T01:15:10;143.27;;;90.65;;
57824;SDS011;43912;44.188;21.094;2023-02-12T01:17:36;115.03;;;73.82;;
57824;SDS011;43912;44.188;21.094;2023-02-12T01:20:02;105.70;;;75.68;;
57824;SDS011;43912;44.188;21.094;2023-02-12T01:22:31;120.90;;;84.85;;
57824;SDS011;43912;44.188;21.094;2023-02-12T01:24:58;132.93;;;87.60;;
57824;SDS011;43912;44.188;21.094;2023-02-12T01:27:24;121.45;;;83.38;;
57824;SDS011;43912;44.188;21.094;2023-02-12T01:29:50;123.20;;;82.40;;
57824;SDS011;43912;44.188;21.094;2023-02-12T01:32:19;119.85;;;84.00;;
57824;SDS011;43912;44.188;21.094;2023-02-12T01:34:45;125.95;;;85.88;;
57824;SDS011;43912;44.188;21.094;2023-02-12T01:37:12;122.80;;;85.07;;
57824;SDS011;43912;44.188;21.094;2023-02-12T01:39:38;124.95;;;87.20;;
57824;SDS011;43912;44.188;21.094;2023-02-12T01:42:04;137.02;;;88.05;;
57824;SDS011;43912;44.188;21.094;2023-02-12T01:44:30;132.93;;;90.50;;
57824;SDS011;43912;44.188;21.094;2023-02-12T01:47:01;128.27;;;86.65;;
57824;SDS011;43912;44.188;21.094;2023-02-12T01:49:32;131.43;;;89.18;;
57824;SDS011;43912;44.188;21.094;2023-02-12T01:52:01;143.15;;;93.50;;
57824;SDS011;43912;44.188;21.094;2023-02-12T01:54:29;126.90;;;88.57;;
57824;SDS011;43912;44.188;21.094;2023-02-12T01:56:55;130.45;;;87.80;;
57824;SDS011;43912;44.188;21.094;2023-02-12T01:59:21;122.57;;;82.13;;
57824;SDS011;43912;44.188;21.094;2023-02-12T02:02:01;120.40;;;81.82;;
57824;SDS011;43912;44.188;21.094;2023-02-12T02:04:28;130.15;;;87.57;;
57824;SDS011;43912;44.188;21.094;2023-02-12T02:06:58;161.98;;;105.32;;
57824;SDS011;43912;44.188;21.094;2023-02-12T02:09:25;146.15;;;96.63;;
57824;SDS011;43912;44.188;21.094;2023-02-12T02:11:53;117.05;;;82.15;;
57824;SDS011;43912;44.188;21.094;2023-02-12T02:14:37;116.95;;;81.30;;
57824;SDS011;43912;44.188;21.094;2023-02-12T02:22:38;129.20;;;88.38;;
57824;SDS011;43912;44.188;21.094;2023-02-12T02:35:31;142.27;;;95.28;;
57824;SDS011;43912;44.188;21.094;2023-02-12T02:38:04;121.70;;;85.75;;
57824;SDS011;43912;44.188;21.094;2023-02-12T02:40:39;126.07;;;86.20;;
57824;SDS011;43912;44.188;21.094;2023-02-12T02:43:08;122.22;;;85.32;;
57824;SDS011;43912;44.188;21.094;2023-02-12T02:45:51;122.85;;;84.43;;
57824;SDS011;43912;44.188;21.094;2023-02-12T02:48:19;124.20;;;85.13;;
57824;SDS011;43912;44.188;21.094;2023-02-12T02:50:48;129.68;;;90.82;;
57824;SDS011;43912;44.188;21.094;2023-02-12T02:53:18;114.85;;;82.50;;
57824;SDS011;43912;44.188;21.094;2023-02-12T02:55:48;148.27;;;112.60;;
57824;SDS011;43912;44.188;21.094;2023-02-12T02:58:16;115.85;;;81.22;;
57824;SDS011;43912;44.188;21.094;2023-02-12T03:03:44;130.75;;;94.85;;
57824;SDS011;43912;44.188;21.094;2023-02-12T03:06:14;121.40;;;82.97;;
57824;SDS011;43912;44.188;21.094;2023-02-12T03:08:46;118.60;;;82.93;;
57824;SDS011;43912;44.188;21.094;2023-02-12T03:11:20;148.50;;;113.53;;
57824;SDS011;43912;44.188;21.094;2023-02-12T03:13:51;116.47;;;83.00;;
57824;SDS011;43912;44.188;21.094;2023-02-12T03:16:24;119.22;;;84.05;;
57824;SDS011;43912;44.188;21.094;2023-02-12T03:18:52;115.05;;;82.43;;
57824;SDS011;43912;44.188;21.094;2023-02-12T03:21:23;114.57;;;81.38;;
57824;SDS011;43912;44.188;21.094;2023-02-12T03:23:53;107.90;;;77.07;;
57824;SDS011;43912;44.188;21.094;2023-02-12T03:26:23;108.40;;;77.85;;
57824;SDS011;43912;44.188;21.094;2023-02-12T03:28:50;110.20;;;79.00;;
57824;SDS011;43912;44.188;21.094;2023-02-12T03:34:10;126.50;;;86.68;;
57824;SDS011;43912;44.188;21.094;2023-02-12T03:36:44;107.75;;;73.65;;
57824;SDS011;43912;44.188;21.094;2023-02-12T03:39:18;112.13;;;77.88;;
57824;SDS011;43912;44.188;21.094;2023-02-12T03:41:54;113.75;;;79.65;;
57824;SDS011;43912;44.188;21.094;2023-02-12T03:44:23;108.97;;;76.20;;
57824;SDS011;43912;44.188;21.094;2023-02-12T03:50:08;189.32;;;113.85;;
57824;SDS011;43912;44.188;21.094;2023-02-12T03:52:35;131.75;;;88.45;;
57824;SDS011;43912;44.188;21.094;2023-02-12T03:55:02;126.35;;;86.50;;
57824;SDS011;43912;44.188;21.094;2023-02-12T03:57:33;127.28;;;88.07;;
57824;SDS011;43912;44.188;21.094;2023-02-12T04:00:04;119.07;;;85.97;;
57824;SDS011;43912;44.188;21.094;2023-02-12T04:02:37;121.20;;;84.40;;
57824;SDS011;43912;44.188;21.094;2023-02-12T04:05:04;115.38;;;83.88;;
57824;SDS011;43912;44.188;21.094;2023-02-12T04:07:30;118.32;;;85.20;;
57824;SDS011;43912;44.188;21.094;2023-02-12T04:09:56;115.53;;;84.00;;
57824;SDS011;43912;44.188;21.094;2023-02-12T04:35:10;129.25;;;90.85;;
57824;SDS011;43912;44.188;21.094;2023-02-12T04:37:06;128.18;;;90.65;;
57824;SDS011;43912;44.188;21.094;2023-02-12T04:39:36;125.28;;;88.90;;
57824;SDS011;43912;44.188;21.094;2023-02-12T04:42:02;134.10;;;92.72;;
57824;SDS011;43912;44.188;21.094;2023-02-12T04:44:30;125.72;;;89.38;;
57824;SDS011;43912;44.188;21.094;2023-02-12T04:46:56;122.50;;;88.50;;
57824;SDS011;43912;44.188;21.094;2023-02-12T04:49:23;121.70;;;89.13;;
57824;SDS011;43912;44.188;21.094;2023-02-12T04:51:49;114.70;;;83.13;;
57824;SDS011;43912;44.188;21.094;2023-02-12T04:54:16;125.30;;;87.25;;
57824;SDS011;43912;44.188;21.094;2023-02-12T04:56:43;132.68;;;89.57;;
57824;SDS011;43912;44.188;21.094;2023-02-12T04:59:09;115.47;;;77.28;;
57824;SDS011;43912;44.188;21.094;2023-02-12T05:01:42;112.88;;;78.28;;
57824;SDS011;43912;44.188;21.094;2023-02-12T05:04:09;107.90;;;77.05;;
57824;SDS011;43912;44.188;21.094;2023-02-12T05:06:37;141.43;;;97.63;;
57824;SDS011;43912;44.188;21.094;2023-02-12T05:09:03;169.77;;;119.43;;
57824;SDS011;43912;44.188;21.094;2023-02-12T05:11:29;148.45;;;103.13;;
57824;SDS011;43912;44.188;21.094;2023-02-12T05:13:55;106.85;;;72.30;;
57824;SDS011;43912;44.188;21.094;2023-02-12T05:16:22;85.30;;;60.05;;
57824;SDS011;43912;44.188;21.094;2023-02-12T05:18:48;96.80;;;67.68;;
57824;SDS011;43912;44.188;21.094;2023-02-12T05:21:14;82.85;;;58.72;;
57824;SDS011;43912;44.188;21.094;2023-02-12T05:23:40;71.38;;;49.90;;
57824;SDS011;43912;44.188;21.094;2023-02-12T05:26:09;72.47;;;48.33;;
57824;SDS011;43912;44.188;21.094;2023-02-12T05:28:35;69.47;;;47.58;;
57824;SDS011;43912;44.188;21.094;2023-02-12T05:34:05;66.68;;;47.28;;
57824;SDS011;43912;44.188;21.094;2023-02-12T05:36:31;69.95;;;48.75;;
57824;SDS011;43912;44.188;21.094;2023-02-12T05:38:58;64.85;;;47.20;;
57824;SDS011;43912;44.188;21.094;2023-02-12T05:41:24;71.80;;;46.58;;
57824;SDS011;43912;44.188;21.094;2023-02-12T05:43:51;63.50;;;47.13;;
57824;SDS011;43912;44.188;21.094;2023-02-12T05:46:17;69.75;;;48.33;;
57824;SDS011;43912;44.188;21.094;2023-02-12T05:48:44;67.53;;;46.42;;
57824;SDS011;43912;44.188;21.094;2023-02-12T05:51:12;70.97;;;48.72;;
57824;SDS011;43912;44.188;21.094;2023-02-12T05:53:38;65.95;;;47.38;;
57824;SDS011;43912;44.188;21.094;2023-02-12T05:56:19;66.25;;;47.88;;
57824;SDS011;43912;44.188;21.094;2023-02-12T05:58:46;63.85;;;45.97;;
57824;SDS011;43912;44.188;21.094;2023-02-12T06:01:13;65.13;;;46.72;;
57824;SDS011;43912;44.188;21.094;2023-02-12T06:03:40;62.95;;;46.53;;
57824;SDS011;43912;44.188;21.094;2023-02-12T06:06:06;65.28;;;46.08;;
57824;SDS011;43912;44.188;21.094;2023-02-12T06:08:32;67.32;;;47.03;;
57824;SDS011;43912;44.188;21.094;2023-02-12T06:11:02;66.15;;;47.75;;
57824;SDS011;43912;44.188;21.094;2023-02-12T06:13:29;68.15;;;47.47;;
57824;SDS011;43912;44.188;21.094;2023-02-12T06:15:55;77.60;;;52.92;;
57824;SDS011;43912;44.188;21.094;2023-02-12T06:21:22;88.18;;;53.88;;
57824;SDS011;43912;44.188;21.094;2023-02-12T06:23:48;82.72;;;51.33;;
57824;SDS011;43912;44.188;21.094;2023-02-12T06:26:15;79.43;;;52.22;;
57824;SDS011;43912;44.188;21.094;2023-02-12T06:28:42;73.40;;;48.08;;
57824;SDS011;43912;44.188;21.094;2023-02-12T06:31:18;80.68;;;51.15;;
57824;SDS011;43912;44.188;21.094;2023-02-12T06:33:44;84.43;;;51.45;;
57824;SDS011;43912;44.188;21.094;2023-02-12T06:36:10;78.18;;;50.13;;
57824;SDS011;43912;44.188;21.094;2023-02-12T06:38:36;62.53;;;43.33;;
57824;SDS011;43912;44.188;21.094;2023-02-12T06:41:02;64.03;;;44.10;;
57824;SDS011;43912;44.188;21.094;2023-02-12T06:43:28;63.50;;;43.45;;
57824;SDS011;43912;44.188;21.094;2023-02-12T06:45:54;62.15;;;44.08;;
57824;SDS011;43912;44.188;21.094;2023-02-12T06:48:26;59.42;;;43.25;;
57824;SDS011;43912;44.188;21.094;2023-02-12T06:50:52;61.65;;;43.28;;
57824;SDS011;43912;44.188;21.094;2023-02-12T06:53:18;62.60;;;46.33;;
57824;SDS011;43912;44.188;21.094;2023-02-12T06:55:44;64.53;;;45.15;;
57824;SDS011;43912;44.188;21.094;2023-02-12T06:58:11;64.55;;;49.67;;
57824;SDS011;43912;44.188;21.094;2023-02-12T07:00:37;65.65;;;46.05;;
57824;SDS011;43912;44.188;21.094;2023-02-12T07:03:10;65.60;;;45.20;;
57824;SDS011;43912;44.188;21.094;2023-02-12T07:05:38;60.03;;;43.97;;
57824;SDS011;43912;44.188;21.094;2023-02-12T07:08:04;62.90;;;43.38;;
57824;SDS011;43912;44.188;21.094;2023-02-12T07:10:30;58.63;;;43.05;;
57824;SDS011;43912;44.188;21.094;2023-02-12T07:12:56;58.67;;;42.47;;
57824;SDS011;43912;44.188;21.094;2023-02-12T07:15:22;62.75;;;41.95;;
57824;SDS011;43912;44.188;21.094;2023-02-12T07:17:48;60.70;;;42.30;;
57824;SDS011;43912;44.188;21.094;2023-02-12T07:20:14;59.50;;;42.78;;
57824;SDS011;43912;44.188;21.094;2023-02-12T07:22:40;60.17;;;43.60;;
57824;SDS011;43912;44.188;21.094;2023-02-12T07:25:06;58.90;;;41.95;;
57824;SDS011;43912;44.188;21.094;2023-02-12T07:27:35;61.20;;;41.95;;
57824;SDS011;43912;44.188;21.094;2023-02-12T07:30:01;57.63;;;40.33;;
57824;SDS011;43912;44.188;21.094;2023-02-12T07:32:31;54.92;;;42.53;;
57824;SDS011;43912;44.188;21.094;2023-02-12T07:34:57;57.78;;;40.30;;
57824;SDS011;43912;44.188;21.094;2023-02-12T07:37:23;55.03;;;40.10;;
57824;SDS011;43912;44.188;21.094;2023-02-12T07:39:49;59.42;;;41.72;;
57824;SDS011;43912;44.188;21.094;2023-02-12T07:42:16;53.45;;;40.63;;
57824;SDS011;43912;44.188;21.094;2023-02-12T07:44:42;57.47;;;40.80;;
57824;SDS011;43912;44.188;21.094;2023-02-12T07:47:08;52.50;;;38.20;;
57824;SDS011;43912;44.188;21.094;2023-02-12T07:49:34;56.03;;;40.97;;
57824;SDS011;43912;44.188;21.094;2023-02-12T07:52:00;55.85;;;40.80;;
57824;SDS011;43912;44.188;21.094;2023-02-12T07:54:26;56.83;;;40.88;;
57824;SDS011;43912;44.188;21.094;2023-02-12T07:56:53;56.33;;;38.85;;
57824;SDS011;43912;44.188;21.094;2023-02-12T07:59:19;59.00;;;41.40;;
57824;SDS011;43912;44.188;21.094;2023-02-12T08:01:51;63.08;;;44.78;;
57824;SDS011;43912;44.188;21.094;2023-02-12T08:04:19;59.20;;;43.05;;
57824;SDS011;43912;44.188;21.094;2023-02-12T08:06:46;56.08;;;43.88;;
57824;SDS011;43912;44.188;21.094;2023-02-12T08:09:14;56.65;;;39.88;;
57824;SDS011;43912;44.188;21.094;2023-02-12T08:11:41;52.35;;;39.55;;
57824;SDS011;43912;44.188;21.094;2023-02-12T08:14:08;58.08;;;41.67;;
57824;SDS011;43912;44.188;21.094;2023-02-12T08:16:36;54.58;;;41.72;;
57824;SDS011;43912;44.188;21.094;2023-02-12T08:19:05;58.78;;;43.90;;
57824;SDS011;43912;44.188;21.094;2023-02-12T08:21:31;59.50;;;44.13;;
57824;SDS011;43912;44.188;21.094;2023-02-12T08:23:58;55.25;;;43.33;;
57824;SDS011;43912;44.188;21.094;2023-02-12T08:26:28;60.15;;;42.63;;
57824;SDS011;43912;44.188;21.094;2023-02-12T08:28:55;56.42;;;39.85;;
57824;SDS011;43912;44.188;21.094;2023-02-12T08:31:23;60.35;;;43.95;;
57824;SDS011;43912;44.188;21.094;2023-02-12T08:33:50;56.42;;;41.70;;
57824;SDS011;43912;44.188;21.094;2023-02-12T08:36:17;56.95;;;42.42;;
57824;SDS011;43912;44.188;21.094;2023-02-12T08:38:44;55.85;;;42.55;;
57824;SDS011;43912;44.188;21.094;2023-02-12T08:41:12;51.47;;;39.90;;
57824;SDS011;43912;44.188;21.094;2023-02-12T08:43:38;52.53;;;40.47;;
57824;SDS011;43912;44.188;21.094;2023-02-12T08:48:34;50.92;;;38.22;;
57824;SDS011;43912;44.188;21.094;2023-02-12T08:51:07;51.00;;;38.03;;
57824;SDS011;43912;44.188;21.094;2023-02-12T08:53:33;54.75;;;39.38;;
57824;SDS011;43912;44.188;21.094;2023-02-12T08:56:00;54.70;;;38.15;;
57824;SDS011;43912;44.188;21.094;2023-02-12T08:58:26;49.58;;;37.50;;
57824;SDS011;43912;44.188;21.094;2023-02-12T09:00:52;47.88;;;35.75;;
57824;SDS011;43912;44.188;21.094;2023-02-12T09:03:18;49.00;;;36.30;;
57824;SDS011;43912;44.188;21.094;2023-02-12T09:05:44;48.28;;;35.85;;
57824;SDS011;43912;44.188;21.094;2023-02-12T09:08:10;47.38;;;35.67;;
57824;SDS011;43912;44.188;21.094;2023-02-12T09:10:40;53.92;;;43.58;;
57824;SDS011;43912;44.188;21.094;2023-02-12T09:13:07;57.10;;;41.45;;
57824;SDS011;43912;44.188;21.094;2023-02-12T09:15:36;46.95;;;35.47;;
57824;SDS011;43912;44.188;21.094;2023-02-12T09:18:03;45.47;;;36.83;;
57824;SDS011;43912;44.188;21.094;2023-02-12T09:20:29;42.92;;;34.78;;
57824;SDS011;43912;44.188;21.094;2023-02-12T09:22:57;41.45;;;33.50;;
57824;SDS011;43912;44.188;21.094;2023-02-12T09:25:23;55.20;;;49.53;;
57824;SDS011;43912;44.188;21.094;2023-02-12T09:27:49;53.25;;;39.42;;
57824;SDS011;43912;44.188;21.094;2023-02-12T09:30:15;48.25;;;37.75;;
57824;SDS011;43912;44.188;21.094;2023-02-12T09:32:41;41.85;;;33.70;;
57824;SDS011;43912;44.188;21.094;2023-02-12T09:35:07;47.60;;;39.88;;
57824;SDS011;43912;44.188;21.094;2023-02-12T09:37:36;40.67;;;30.55;;
57824;SDS011;43912;44.188;21.094;2023-02-12T09:40:03;42.67;;;33.65;;
57824;SDS011;43912;44.188;21.094;2023-02-12T09:42:36;42.78;;;32.90;;
57824;SDS011;43912;44.188;21.094;2023-02-12T09:47:58;41.30;;;33.33;;
57824;SDS011;43912;44.188;21.094;2023-02-12T09:50:32;40.83;;;33.45;;
57824;SDS011;43912;44.188;21.094;2023-02-12T09:53:02;44.30;;;34.00;;
57824;SDS011;43912;44.188;21.094;2023-02-12T09:55:30;42.10;;;33.35;;
57824;SDS011;43912;44.188;21.094;2023-02-12T09:57:56;40.63;;;33.05;;
57824;SDS011;43912;44.188;21.094;2023-02-12T10:00:24;43.60;;;34.33;;
57824;SDS011;43912;44.188;21.094;2023-02-12T10:02:52;40.65;;;34.22;;
57824;SDS011;43912;44.188;21.094;2023-02-12T10:05:33;46.60;;;37.83;;
57824;SDS011;43912;44.188;21.094;2023-02-12T10:15:37;43.55;;;35.25;;
57824;SDS011;43912;44.188;21.094;2023-02-12T10:28:08;59.95;;;43.08;;
57824;SDS011;43912;44.188;21.094;2023-02-12T10:33:29;272.77;;;136.73;;
57824;SDS011;43912;44.188;21.094;2023-02-12T10:35:58;64.35;;;47.60;;
57824;SDS011;43912;44.188;21.094;2023-02-12T10:38:29;51.78;;;41.58;;
57824;SDS011;43912;44.188;21.094;2023-02-12T10:40:56;45.80;;;39.60;;
57824;SDS011;43912;44.188;21.094;2023-02-12T10:43:25;42.28;;;36.95;;
57824;SDS011;43912;44.188;21.094;2023-02-12T10:45:52;45.25;;;38.53;;
57824;SDS011;43912;44.188;21.094;2023-02-12T10:48:22;45.40;;;39.20;;
57824;SDS011;43912;44.188;21.094;2023-02-12T10:51:03;42.17;;;36.90;;
57824;SDS011;43912;44.188;21.094;2023-02-12T10:56:05;44.17;;;37.85;;
57824;SDS011;43912;44.188;21.094;2023-02-12T10:58:34;44.47;;;37.42;;
57824;SDS011;43912;44.188;21.094;2023-02-12T11:01:00;44.88;;;36.25;;
57824;SDS011;43912;44.188;21.094;2023-02-12T11:03:30;41.92;;;35.72;;
57824;SDS011;43912;44.188;21.094;2023-02-12T11:06:20;39.40;;;33.85;;
57824;SDS011;43912;44.188;21.094;2023-02-12T11:08:46;37.97;;;33.13;;
57824;SDS011;43912;44.188;21.094;2023-02-12T11:11:18;37.75;;;32.65;;
57824;SDS011;43912;44.188;21.094;2023-02-12T11:16:42;35.60;;;29.60;;
57824;SDS011;43912;44.188;21.094;2023-02-12T11:19:21;37.05;;;29.88;;
57824;SDS011;43912;44.188;21.094;2023-02-12T11:21:48;38.33;;;34.13;;
57824;SDS011;43912;44.188;21.094;2023-02-12T11:29:38;37.50;;;31.33;;
57824;SDS011;43912;44.188;21.094;2023-02-12T11:32:05;35.95;;;31.88;;
57824;SDS011;43912;44.188;21.094;2023-02-12T11:34:36;40.67;;;32.72;;
57824;SDS011;43912;44.188;21.094;2023-02-12T11:37:02;36.85;;;30.60;;
57824;SDS011;43912;44.188;21.094;2023-02-12T11:39:35;36.70;;;31.00;;
57824;SDS011;43912;44.188;21.094;2023-02-12T11:44:56;34.92;;;30.45;;
57824;SDS011;43912;44.188;21.094;2023-02-12T11:47:24;37.85;;;32.38;;
57824;SDS011;43912;44.188;21.094;2023-02-12T11:52:38;38.10;;;31.80;;
57824;SDS011;43912;44.188;21.094;2023-02-12T11:55:06;48.83;;;37.35;;
57824;SDS011;43912;44.188;21.094;2023-02-12T11:57:42;41.45;;;32.08;;
57824;SDS011;43912;44.188;21.094;2023-02-12T12:00:13;40.75;;;33.60;;
57824;SDS011;43912;44.188;21.094;2023-02-12T12:02:41;40.53;;;32.20;;
57824;SDS011;43912;44.188;21.094;2023-02-12T12:05:14;42.30;;;33.92;;
57824;SDS011;43912;44.188;21.094;2023-02-12T12:07:42;41.38;;;32.55;;
57824;SDS011;43912;44.188;21.094;2023-02-12T12:10:14;39.28;;;33.53;;
57824;SDS011;43912;44.188;21.094;2023-02-12T12:12:44;40.05;;;35.03;;
57824;SDS011;43912;44.188;21.094;2023-02-12T12:21:00;41.38;;;32.65;;
57824;SDS011;43912;44.188;21.094;2023-02-12T12:23:34;39.60;;;31.98;;
57824;SDS011;43912;44.188;21.094;2023-02-12T12:26:12;34.30;;;28.08;;
57824;SDS011;43912;44.188;21.094;2023-02-12T12:34:04;37.72;;;31.00;;
57824;SDS011;43912;44.188;21.094;2023-02-12T12:42:00;44.67;;;33.92;;
57824;SDS011;43912;44.188;21.094;2023-02-12T12:52:20;37.78;;;30.17;;
57824;SDS011;43912;44.188;21.094;2023-02-12T12:57:32;42.25;;;32.33;;
57824;SDS011;43912;44.188;21.094;2023-02-12T13:00:13;37.80;;;31.70;;
57824;SDS011;43912;44.188;21.094;2023-02-12T13:03:48;38.30;;;32.33;;
57824;SDS011;43912;44.188;21.094;2023-02-12T13:08:35;43.22;;;33.78;;
57824;SDS011;43912;44.188;21.094;2023-02-12T13:13:37;35.15;;;28.15;;
57824;SDS011;43912;44.188;21.094;2023-02-12T13:23:55;36.42;;;29.35;;
57824;SDS011;43912;44.188;21.094;2023-02-12T13:26:25;37.58;;;30.95;;
57824;SDS011;43912;44.188;21.094;2023-02-12T13:29:04;37.38;;;31.08;;
57824;SDS011;43912;44.188;21.094;2023-02-12T13:31:31;53.40;;;44.45;;
57824;SDS011;43912;44.188;21.094;2023-02-12T13:34:01;67.50;;;54.05;;
57824;SDS011;43912;44.188;21.094;2023-02-12T13:36:28;44.47;;;38.00;;
57824;SDS011;43912;44.188;21.094;2023-02-12T13:38:56;42.17;;;36.53;;
57824;SDS011;43912;44.188;21.094;2023-02-12T13:41:25;41.05;;;36.38;;
57824;SDS011;43912;44.188;21.094;2023-02-12T13:44:00;48.30;;;40.35;;
57824;SDS011;43912;44.188;21.094;2023-02-12T13:51:44;42.83;;;35.42;;
57824;SDS011;43912;44.188;21.094;2023-02-12T13:54:24;39.60;;;35.15;;
57824;SDS011;43912;44.188;21.094;2023-02-12T13:57:00;38.80;;;33.80;;
57824;SDS011;43912;44.188;21.094;2023-02-12T14:02:23;39.45;;;34.05;;
57824;SDS011;43912;44.188;21.094;2023-02-12T14:04:45;36.78;;;31.13;;
57824;SDS011;43912;44.188;21.094;2023-02-12T14:07:13;40.15;;;32.80;;
57824;SDS011;43912;44.188;21.094;2023-02-12T14:09:58;37.65;;;32.60;;
57824;SDS011;43912;44.188;21.094;2023-02-12T14:24:57;40.42;;;33.67;;
57824;SDS011;43912;44.188;21.094;2023-02-12T14:38:00;51.63;;;40.95;;
57824;SDS011;43912;44.188;21.094;2023-02-12T14:43:17;50.53;;;36.20;;
57824;SDS011;43912;44.188;21.094;2023-02-12T14:45:46;41.53;;;33.20;;
57824;SDS011;43912;44.188;21.094;2023-02-12T14:48:37;41.28;;;32.65;;
57824;SDS011;43912;44.188;21.094;2023-02-12T14:50:58;45.53;;;34.95;;
57824;SDS011;43912;44.188;21.094;2023-02-12T14:53:33;41.10;;;31.70;;
57824;SDS011;43912;44.188;21.094;2023-02-12T14:56:00;39.67;;;32.45;;
57824;SDS011;43912;44.188;21.094;2023-02-12T14:58:27;40.40;;;31.90;;
57824;SDS011;43912;44.188;21.094;2023-02-12T15:00:57;40.13;;;30.85;;
57824;SDS011;43912;44.188;21.094;2023-02-12T15:03:26;40.42;;;31.33;;
57824;SDS011;43912;44.188;21.094;2023-02-12T15:06:06;41.70;;;31.85;;
57824;SDS011;43912;44.188;21.094;2023-02-12T15:13:47;42.50;;;33.30;;
57824;SDS011;43912;44.188;21.094;2023-02-12T15:21:27;42.63;;;32.22;;
57824;SDS011;43912;44.188;21.094;2023-02-12T15:26:35;47.38;;;34.83;;
57824;SDS011;43912;44.188;21.094;2023-02-12T15:29:05;45.33;;;34.63;;
57824;SDS011;43912;44.188;21.094;2023-02-12T15:31:31;51.78;;;36.47;;
57824;SDS011;43912;44.188;21.094;2023-02-12T15:34:05;44.53;;;33.97;;
57824;SDS011;43912;44.188;21.094;2023-02-12T15:39:02;50.03;;;35.30;;
57824;SDS011;43912;44.188;21.094;2023-02-12T15:43:59;69.35;;;46.72;;
57824;SDS011;43912;44.188;21.094;2023-02-12T15:46:25;82.72;;;51.35;;
57824;SDS011;43912;44.188;21.094;2023-02-12T15:48:51;89.13;;;51.60;;
57824;SDS011;43912;44.188;21.094;2023-02-12T15:51:34;61.42;;;41.75;;
57824;SDS011;43912;44.188;21.094;2023-02-12T15:54:03;68.20;;;43.00;;
57824;SDS011;43912;44.188;21.094;2023-02-12T15:56:30;134.57;;;75.30;;
57824;SDS011;43912;44.188;21.094;2023-02-12T15:58:58;130.43;;;71.97;;
57824;SDS011;43912;44.188;21.094;2023-02-12T16:01:34;157.38;;;81.13;;
57824;SDS011;43912;44.188;21.094;2023-02-12T16:04:07;117.10;;;61.92;;
57824;SDS011;43912;44.188;21.094;2023-02-12T16:06:34;84.53;;;50.17;;
57824;SDS011;43912;44.188;21.094;2023-02-12T16:09:14;99.57;;;52.88;;
57824;SDS011;43912;44.188;21.094;2023-02-12T16:11:48;55.28;;;36.83;;
57824;SDS011;43912;44.188;21.094;2023-02-12T16:14:21;54.90;;;34.47;;
57824;SDS011;43912;44.188;21.094;2023-02-12T16:16:49;49.85;;;35.45;;
57824;SDS011;43912;44.188;21.094;2023-02-12T16:21:41;44.65;;;32.35;;
57824;SDS011;43912;44.188;21.094;2023-02-12T16:24:21;44.38;;;32.00;;
57824;SDS011;43912;44.188;21.094;2023-02-12T16:26:50;45.67;;;33.78;;
57824;SDS011;43912;44.188;21.094;2023-02-12T16:29:16;44.28;;;33.70;;
57824;SDS011;43912;44.188;21.094;2023-02-12T16:31:59;42.50;;;32.88;;
57824;SDS011;43912;44.188;21.094;2023-02-12T16:34:36;45.25;;;34.53;;
57824;SDS011;43912;44.188;21.094;2023-02-12T16:37:35;41.88;;;30.92;;
57824;SDS011;43912;44.188;21.094;2023-02-12T16:42:27;42.60;;;30.58;;
57824;SDS011;43912;44.188;21.094;2023-02-12T16:44:53;45.13;;;32.10;;
57824;SDS011;43912;44.188;21.094;2023-02-12T16:47:20;47.63;;;32.03;;
57824;SDS011;43912;44.188;21.094;2023-02-12T16:49:58;69.35;;;42.22;;
57824;SDS011;43912;44.188;21.094;2023-02-12T16:52:33;75.57;;;46.58;;
57824;SDS011;43912;44.188;21.094;2023-02-12T16:54:59;73.07;;;49.38;;
57824;SDS011;43912;44.188;21.094;2023-02-12T16:57:26;88.70;;;58.13;;
57824;SDS011;43912;44.188;21.094;2023-02-12T16:59:52;82.25;;;54.50;;
57824;SDS011;43912;44.188;21.094;2023-02-12T17:02:18;94.72;;;60.17;;
57824;SDS011;43912;44.188;21.094;2023-02-12T17:04:44;131.00;;;74.53;;
57824;SDS011;43912;44.188;21.094;2023-02-12T17:07:18;179.75;;;96.55;;
57824;SDS011;43912;44.188;21.094;2023-02-12T17:09:45;168.20;;;87.20;;
57824;SDS011;43912;44.188;21.094;2023-02-12T17:12:11;92.28;;;58.38;;
57824;SDS011;43912;44.188;21.094;2023-02-12T17:14:37;64.35;;;47.38;;
57824;SDS011;43912;44.188;21.094;2023-02-12T17:17:03;89.13;;;62.92;;
57824;SDS011;43912;44.188;21.094;2023-02-12T17:19:29;196.23;;;117.05;;
57824;SDS011;43912;44.188;21.094;2023-02-12T17:21:55;186.93;;;117.35;;
57824;SDS011;43912;44.188;21.094;2023-02-12T17:26:48;250.05;;;178.18;;
57824;SDS011;43912;44.188;21.094;2023-02-12T17:29:15;129.75;;;90.65;;